aviador You're here:

LEVC Decoded Metar

VALENCIA in SPAIN
Report Time2015-03-28 01:30:00
UTC Time2015-03-28 01:41:30
Flight Rules vfr VFR
Wind270° at 07 kt
W.Decomp.*RWY 30: 6.1 kt HW 3.4 kt LCW
W.Rank270° ranks 3
Current wind is below 270° avg. (8.4)
Visibility9999 m
Phenomena:N/A
Clouds:N/A
Expected CloudBase > 3,200 ft AGL from Temp-Dew spread
CeilingNone
Temp17°C (ISA +2)
Dew Point09°C (59% RH)
AAT14.2°C
QNH1022 hPa
Density Alt338 ft
Elevation203 ft
Report Wrong Elevation
Raw Report
METAR LEVC 280130Z 27007KT CAVOK 17/09 Q1022 NOSIG=

Extra information for LEVC:More info

Metar Taf Metar & Taf Last 4 Metars F.Rules Stats Wind Profile Meteogram Temp Stats Airport Information Weather charts Add Link Nearby VenuesMetar ALERT Operation Metar Decoded Social comments

Webcam Valencia